Terminal Aerodrome Forecast
Issued by NWS

Home | Current Version | Previous Version | Text Only | Print | Product List | Glossary On
Versions: 1 2 3 4 5 6 7 8 9 10 11 12 13 14 15 16 17 18 19 20 21 22 23 24 25 26 27 28 29 30 31 32 33 34 35 36
000
FTUS45 KBOI 290520
TAFBKE
TAF
KBKE 290520Z 2906/3006 17006KT 5SM BR BKN010 OVC025
      TEMPO 2908/2912 P6SM NSW SCT010 OVC030
     FM291200 30007KT 5SM BR VCSH OVC020
      TEMPO 2912/2916 1SM -SN BR OVC010
     FM291600 32012G20KT 3SM -SN BR OVC015
      TEMPO 2916/2920 1SM -SN BR OVC010
     FM292000 32015G22KT P6SM VCSH SCT015 BKN030
      AMD NOT SKED=

USA.gov is the U.S. government's official web portal to all federal, state and local government web resources and services.